Time;durP1;ratioP1;P1;durP2;ratioP2;P2;SDS_P1;SDS_P2;PMS_P1;PMS_P2;Temp;Humidity;BMP_temperature;BMP_pressure;BME280_temperature;BME280_humidity;BME280_pressure;Samples;Min_cycle;Max_cycle;Signal;HPM_P1;HPM_P2
2022/08/24 00:01:26;;;;;;;5.00;2.15;;;;;;;24.39;64.39;101085.69;5045289;28;20064;-68
2022/08/24 00:03:56;;;;;;;5.03;2.97;;;;;;;24.64;65.45;101080.09;5051310;28;20052;-68
2022/08/24 00:06:27;;;;;;;5.53;2.40;;;;;;;24.76;66.09;101090.22;5052019;28;20695;-68
2022/08/24 00:08:55;;;;;;;6.07;2.30;;;;;;;24.69;64.98;101081.75;5053244;28;20072;-68
2022/08/24 00:11:23;;;;;;;8.40;2.40;;;;;;;24.81;65.76;101087.03;5053723;28;20065;-69
2022/08/24 00:13:51;;;;;;;3.88;2.10;;;;;;;24.64;65.11;101082.91;5053748;28;20049;-68
2022/08/24 00:16:19;;;;;;;7.00;2.40;;;;;;;24.78;64.83;101085.78;5035411;28;20053;-68
2022/08/24 00:18:47;;;;;;;4.22;2.10;;;;;;;24.62;65.35;101082.50;5055343;28;20067;-68
2022/08/24 00:21:15;;;;;;;4.82;2.00;;;;;;;24.60;66.62;101082.09;5053117;28;20063;-68
2022/08/24 00:23:42;;;;;;;6.57;2.83;;;;;;;24.70;65.14;101074.91;5052580;28;20111;-69
2022/08/24 00:26:10;;;;;;;6.18;2.20;;;;;;;24.57;64.01;101084.91;5052882;28;20052;-67
2022/08/24 00:28:37;;;;;;;5.60;2.15;;;;;;;24.44;64.74;101085.28;5056557;28;20036;-67
2022/08/24 00:31:04;;;;;;;11.18;2.45;;;;;;;24.39;66.32;101087.72;5074019;28;20872;-67
2022/08/24 00:33:35;;;;;;;4.53;2.33;;;;;;;24.62;67.19;101079.69;5054902;28;20048;-69
2022/08/24 00:36:03;;;;;;;3.65;1.92;;;;;;;24.73;65.63;101086.19;5052579;28;20049;-68
2022/08/24 00:38:32;;;;;;;8.50;2.40;;;;;;;24.60;64.71;101092.59;5054950;28;20068;-68
2022/08/24 00:41:00;;;;;;;6.40;2.30;;;;;;;24.63;65.29;101089.78;5053676;28;20044;-68
2022/08/24 00:43:28;;;;;;;7.85;2.38;;;;;;;24.70;65.53;101087.00;5066939;28;20044;-68
2022/08/24 00:46:14;;;;;;;7.72;2.53;;;;;;;24.32;63.91;101088.47;5054384;28;20052;-68
2022/08/24 00:48:45;;;;;;;9.80;2.58;;;;;;;24.56;65.09;101083.31;5053238;28;20045;-69
2022/08/24 00:51:17;;;;;;;7.00;2.47;;;;;;;24.66;65.94;101080.50;5051063;28;20056;-68
2022/08/24 00:53:49;;;;;;;3.80;2.35;;;;;;;24.66;65.14;101074.88;5047307;28;20516;-67
2022/08/24 00:56:20;;;;;;;4.97;2.28;;;;;;;24.81;64.96;101084.19;5063468;28;20053;-68
2022/08/24 00:58:51;;;;;;;7.70;2.40;;;;;;;24.67;64.44;101079.28;5053003;28;20053;-69
2022/08/24 01:01:24;;;;;;;4.80;2.47;;;;;;;24.58;64.45;101084.53;5053846;28;20055;-68
2022/08/24 01:03:52;;;;;;;5.30;2.58;;;;;;;24.43;64.05;101086.50;5067021;28;20424;-68
2022/08/24 01:06:23;;;;;;;4.70;2.30;;;;;;;24.63;64.78;101078.50;5060689;28;20046;-69
2022/08/24 01:08:51;;;;;;;4.57;2.42;;;;;;;24.84;64.76;101077.75;5069361;28;20057;-68
2022/08/24 01:11:26;;;;;;;8.88;2.45;;;;;;;25.03;64.17;101083.00;5057841;28;20054;-68
2022/08/24 01:13:59;;;;;;;7.32;2.17;;;;;;;24.82;62.90;101078.16;5051624;28;20045;-68
2022/08/24 01:19:35;;;;;;;7.18;2.30;;;;;;;24.15;63.84;101082.78;5054333;28;20075;-67
2022/08/24 01:22:41;;;;;;;6.28;2.40;;;;;;;24.12;65.55;101084.41;5051913;28;20515;-67
2022/08/24 01:25:09;;;;;;;7.15;2.72;;;;;;;24.09;65.76;101078.75;5042510;28;20534;-70
2022/08/24 01:27:36;;;;;;;5.80;2.10;;;;;;;24.12;65.21;101075.13;5068012;28;20052;-70
2022/08/24 01:30:08;;;;;;;8.50;2.20;;;;;;;24.50;66.22;101080.88;5052040;28;20060;-72
2022/08/24 01:32:37;;;;;;;4.50;2.40;;;;;;;24.39;65.21;101080.03;5050526;28;20052;-67
2022/08/24 01:35:05;;;;;;;6.45;2.47;;;;;;;24.43;64.82;101080.88;5036080;28;20060;-67
2022/08/24 01:37:33;;;;;;;3.78;1.90;;;;;;;24.29;64.38;101088.47;5047165;28;20076;-67
2022/08/24 01:40:05;;;;;;;6.85;2.20;;;;;;;24.11;64.48;101091.22;5051065;28;20059;-67
2022/08/24 01:42:33;;;;;;;4.63;2.35;;;;;;;24.19;65.98;101084.41;5050426;28;20068;-67
2022/08/24 01:45:02;;;;;;;5.30;1.98;;;;;;;24.16;65.65;101088.03;5055129;28;20051;-67
2022/08/24 01:47:30;;;;;;;5.13;2.43;;;;;;;24.09;64.46;101084.38;5034662;28;20049;-67
2022/08/24 01:49:57;;;;;;;5.45;1.77;;;;;;;24.07;66.09;101078.34;5047067;28;20052;-67
2022/08/24 01:52:25;;;;;;;5.68;2.20;;;;;;;24.21;66.02;101084.03;5051700;28;20488;-67
2022/08/24 01:55:05;;;;;;;5.30;2.17;;;;;;;24.30;65.51;101085.25;5050430;28;20048;-68
2022/08/24 01:57:32;;;;;;;5.18;2.00;;;;;;;24.07;65.50;101090.41;5053483;28;20053;-67
2022/08/24 02:00:03;;;;;;;5.75;2.30;;;;;;;24.24;66.49;101094.47;5052393;28;20496;-68
2022/08/24 02:02:40;;;;;;;5.65;2.40;;;;;;;24.11;65.38;101088.38;5053403;28;20041;-68
2022/08/24 02:05:09;;;;;;;5.32;2.40;;;;;;;24.07;65.20;101081.97;5050916;28;20060;-68
2022/08/24 02:07:37;;;;;;;5.15;2.42;;;;;;;23.66;65.78;101082.53;5035147;28;20053;-68
2022/08/24 02:10:07;;;;;;;7.32;2.47;;;;;;;23.65;67.34;101086.53;5051643;28;20057;-68
2022/08/24 02:12:35;;;;;;;6.00;2.28;;;;;;;23.55;66.47;101081.66;5052402;28;20049;-68
2022/08/24 02:15:06;;;;;;;4.57;2.25;;;;;;;23.64;68.32;101080.09;5068511;28;20045;-68
2022/08/24 02:17:35;;;;;;;6.80;2.25;;;;;;;24.01;68.97;101080.72;5044004;28;20053;-68
2022/08/24 02:20:04;;;;;;;7.53;2.78;;;;;;;24.29;67.42;101078.00;5068888;28;20056;-68
2022/08/24 02:22:31;;;;;;;9.27;2.53;;;;;;;24.31;67.76;101078.44;5065576;28;20060;-68
2022/08/24 02:24:59;;;;;;;6.47;2.25;;;;;;;24.16;66.31;101093.66;5057498;28;20295;-68
2022/08/24 02:27:26;;;;;;;7.13;2.25;;;;;;;23.90;65.67;101081.84;5065624;28;20072;-68
2022/08/24 02:29:53;;;;;;;4.10;2.17;;;;;;;23.99;68.72;101087.94;5056424;28;20037;-68
2022/08/24 02:32:20;;;;;;;5.38;2.50;;;;;;;23.98;65.56;101083.47;5053943;28;20056;-68
2022/08/24 02:34:48;;;;;;;5.72;2.35;;;;;;;23.86;67.46;101087.47;5071774;28;20488;-68
2022/08/24 02:37:20;;;;;;;6.53;2.47;;;;;;;23.96;69.02;101089.50;5053973;28;20055;-68
2022/08/24 02:39:48;;;;;;;6.03;2.35;;;;;;;24.10;65.88;101091.59;5054620;28;20052;-68
2022/08/24 02:42:17;;;;;;;6.80;2.17;;;;;;;24.03;67.94;101092.38;5054237;28;20057;-69
2022/08/24 02:44:45;;;;;;;6.35;2.60;;;;;;;24.22;67.78;101092.06;5054103;28;20060;-68
2022/08/24 02:47:16;;;;;;;3.50;2.10;;;;;;;24.20;67.06;101082.41;5067724;28;20057;-68
2022/08/24 02:49:44;;;;;;;6.65;2.30;;;;;;;23.85;67.34;101085.03;5071410;28;20041;-68
2022/08/24 02:52:11;;;;;;;5.90;2.22;;;;;;;23.69;66.44;101082.56;5049729;28;20060;-68
2022/08/24 02:54:39;;;;;;;8.15;2.42;;;;;;;23.62;67.77;101081.69;5054525;28;20373;-68
2022/08/24 02:57:06;;;;;;;5.47;2.25;;;;;;;23.61;67.83;101080.06;5053543;28;20056;-68
2022/08/24 02:59:34;;;;;;;4.60;2.03;;;;;;;23.90;68.48;101084.66;5038701;28;20056;-68
2022/08/24 03:02:02;;;;;;;4.57;2.15;;;;;;;24.05;68.26;101077.91;5077600;28;20044;-67
2022/08/24 03:04:30;;;;;;;4.60;2.30;;;;;;;23.90;67.97;101087.47;5087202;28;20045;-68
2022/08/24 03:06:58;;;;;;;3.92;2.13;;;;;;;23.72;67.65;101084.56;5069297;28;20404;-67
2022/08/24 03:09:25;;;;;;;7.18;2.30;;;;;;;23.37;68.49;101087.97;5068156;28;20048;-67
2022/08/24 03:11:57;;;;;;;7.38;2.78;;;;;;;23.71;71.64;101080.13;5070511;28;20064;-66
2022/08/24 03:14:24;;;;;;;6.93;2.30;;;;;;;23.70;70.10;101081.34;5054719;28;20829;-67
2022/08/24 03:16:52;;;;;;;4.22;2.28;;;;;;;23.43;68.25;101080.75;5080372;28;20052;-67
2022/08/24 03:19:21;;;;;;;6.00;2.35;;;;;;;23.64;70.07;101085.72;5065211;28;20056;-68
2022/08/24 03:21:48;;;;;;;4.93;2.78;;;;;;;23.50;70.87;101080.03;5057812;28;20049;-67
2022/08/24 03:24:15;;;;;;;7.13;2.85;;;;;;;23.89;70.60;101083.84;5049552;28;20061;-67
2022/08/24 03:26:44;;;;;;;6.20;2.80;;;;;;;23.39;69.85;101073.50;5055643;28;20041;-67
2022/08/24 03:29:13;;;;;;;8.07;2.50;;;;;;;23.37;70.21;101075.91;5076943;28;20037;-67
2022/08/24 03:31:43;;;;;;;4.28;2.60;;;;;;;23.60;72.42;101075.66;5036658;28;20056;-68
2022/08/24 03:34:18;;;;;;;4.68;2.53;;;;;;;23.71;71.75;101073.72;5053389;28;20052;-68
2022/08/24 03:36:47;;;;;;;8.00;2.58;;;;;;;23.49;71.39;101071.94;5055616;28;20056;-69
2022/08/24 03:39:15;;;;;;;5.88;2.60;;;;;;;23.86;71.32;101072.56;5054805;28;20064;-69
2022/08/24 03:41:44;;;;;;;9.13;2.63;;;;;;;23.69;70.47;101076.09;5053687;28;20402;-68
2022/08/24 03:44:11;;;;;;;6.32;2.40;;;;;;;23.55;70.74;101071.22;5068889;28;20049;-69
2022/08/24 03:46:38;;;;;;;5.93;2.95;;;;;;;23.27;71.39;101080.25;5047035;28;20049;-68
2022/08/24 03:49:08;;;;;;;10.23;3.35;;;;;;;23.54;72.60;101071.59;5053670;28;20053;-69
2022/08/24 03:51:37;;;;;;;7.43;2.67;;;;;;;23.54;71.55;101078.03;5051265;28;20044;-68
2022/08/24 03:54:08;;;;;;;5.13;2.58;;;;;;;23.79;71.91;101070.53;5046068;28;20055;-68
2022/08/24 03:56:35;;;;;;;8.75;3.00;;;;;;;23.61;71.72;101074.44;5077553;28;20060;-68
2022/08/24 03:59:03;;;;;;;4.72;2.80;;;;;;;23.58;71.43;101064.78;5071549;28;20060;-68
2022/08/24 04:01:37;;;;;;;7.93;2.83;;;;;;;23.55;71.30;101071.22;5070423;28;20060;-68
2022/08/24 04:04:05;;;;;;;7.90;2.67;;;;;;;23.60;71.01;101068.03;5054035;28;20053;-69
2022/08/24 04:06:34;;;;;;;;;;;;;;;23.59;72.01;101068.41;5053927;28;20072;-67
2022/08/24 04:09:03;;;;;;;5.22;2.55;;;;;;;23.63;72.89;101069.22;5070150;28;19921;-67
2022/08/24 04:11:34;;;;;;;7.32;2.63;;;;;;;23.33;70.28;101061.00;5062692;28;20488;-67
2022/08/24 04:14:07;;;;;;;5.68;2.60;;;;;;;23.37;72.40;101068.28;5068881;28;20048;-67
2022/08/24 04:16:57;;;;;;;5.07;2.50;;;;;;;23.49;72.98;101067.16;5040099;28;20052;-67
2022/08/24 04:19:31;;;;;;;6.65;2.67;;;;;;;23.68;72.82;101064.03;5070041;28;20048;-67
2022/08/24 04:21:58;;;;;;;7.65;2.67;;;;;;;23.56;73.35;101061.56;5031840;28;20380;-68
2022/08/24 04:24:25;;;;;;;7.47;3.00;;;;;;;23.47;73.07;101071.56;5036415;28;20056;-66
2022/08/24 04:26:53;;;;;;;7.13;2.60;;;;;;;23.50;73.49;101071.59;5056364;28;20053;-67
2022/08/24 04:29:20;;;;;;;5.50;2.50;;;;;;;23.49;72.95;101066.31;5042095;28;20053;-67
2022/08/24 04:31:51;;;;;;;9.68;3.20;;;;;;;23.55;73.63;101064.78;5053325;28;20436;-67
2022/08/24 04:34:19;;;;;;;4.85;3.03;;;;;;;23.53;72.68;101059.53;5063258;28;20396;-67
2022/08/24 04:36:47;;;;;;;8.75;2.90;;;;;;;23.53;72.30;101065.16;5053375;28;20064;-67
2022/08/24 04:39:15;;;;;;;6.20;2.95;;;;;;;23.33;72.69;101066.63;5054097;28;20068;-68
2022/08/24 04:41:49;;;;;;;7.57;2.78;;;;;;;23.36;72.98;101068.69;5054764;28;20052;-67
2022/08/24 04:44:18;;;;;;;7.97;3.17;;;;;;;23.50;73.68;101053.91;5036404;28;20045;-67
2022/08/24 04:46:46;;;;;;;10.13;3.30;;;;;;;23.56;74.01;101061.56;5067846;28;20300;-67
2022/08/24 04:49:13;;;;;;;8.10;3.30;;;;;;;23.28;72.34;101062.19;5054378;28;20052;-67
2022/08/24 04:51:40;;;;;;;12.15;3.58;;;;;;;23.39;73.69;101067.88;5052704;28;20049;-67
2022/08/24 04:54:08;;;;;;;5.57;3.15;;;;;;;23.39;73.60;101060.28;5051530;28;20053;-68
2022/08/24 04:56:36;;;;;;;9.35;3.28;;;;;;;23.38;73.45;101064.25;5070224;28;20416;-68
2022/08/24 04:59:04;;;;;;;5.25;3.13;;;;;;;23.27;74.21;101059.75;5052613;28;20049;-67
2022/08/24 05:01:33;;;;;;;7.35;2.90;;;;;;;23.27;74.46;101063.38;5068531;28;20053;-67
2022/08/24 05:04:03;;;;;;;6.43;3.00;;;;;;;23.46;74.67;101067.94;5051934;28;20500;-67
2022/08/24 05:06:31;;;;;;;6.93;3.30;;;;;;;23.28;73.06;101070.63;5058721;28;20053;-67
2022/08/24 05:09:00;;;;;;;9.18;2.92;;;;;;;23.38;74.49;101069.06;5041193;28;20064;-67
2022/08/24 05:11:29;;;;;;;6.87;3.70;;;;;;;23.14;75.49;101072.47;5069454;28;20056;-67
2022/08/24 05:13:58;;;;;;;10.77;3.80;;;;;;;23.34;74.84;101071.84;5059965;28;20405;-68
2022/08/24 05:16:26;;;;;;;8.27;3.55;;;;;;;23.30;73.97;101071.03;5050401;28;20060;-68
2022/08/24 05:18:55;;;;;;;6.43;3.50;;;;;;;23.33;74.42;101070.25;5052169;28;20045;-67
2022/08/24 05:21:25;;;;;;;7.93;4.20;;;;;;;23.39;74.85;101074.31;5052729;28;20060;-67
2022/08/24 05:23:54;;;;;;;8.00;3.90;;;;;;;23.48;74.63;101075.97;5035936;28;20063;-67
2022/08/24 05:26:26;;;;;;;6.90;3.75;;;;;;;23.58;74.65;101078.84;5052446;28;20354;-68
2022/08/24 05:28:56;;;;;;;10.55;3.83;;;;;;;23.66;74.43;101082.53;5070701;28;20415;-67
2022/08/24 05:31:28;;;;;;;7.70;3.78;;;;;;;23.58;74.41;101076.03;5050045;28;20061;-68
2022/08/24 05:33:59;;;;;;;6.85;4.07;;;;;;;23.43;73.46;101077.94;5052852;28;20053;-68
2022/08/24 05:36:29;;;;;;;14.27;4.78;;;;;;;23.50;73.94;101080.03;5052846;28;20048;-69
2022/08/24 05:38:59;;;;;;;9.52;3.97;;;;;;;23.57;73.16;101079.25;5051048;28;20056;-68
2022/08/24 05:41:27;;;;;;;6.93;3.83;;;;;;;23.74;73.43;101072.91;5055448;28;20059;-68
2022/08/24 05:44:03;;;;;;;10.32;3.85;;;;;;;23.44;73.04;101081.56;5051866;28;20416;-68
2022/08/24 05:46:34;;;;;;;13.30;3.75;;;;;;;23.44;73.77;101078.75;5052155;28;20053;-67
2022/08/24 05:49:01;;;;;;;7.22;3.55;;;;;;;23.61;74.37;101080.88;5037009;28;20041;-68
2022/08/24 05:51:30;;;;;;;6.68;3.90;;;;;;;23.69;72.97;101087.34;5060105;28;20052;-67
2022/08/24 05:54:08;;;;;;;7.32;3.60;;;;;;;23.68;73.46;101086.53;5046522;28;20052;-68
2022/08/24 05:56:47;;;;;;;8.15;4.10;;;;;;;23.54;72.87;101083.66;5076045;28;20062;-67
2022/08/24 05:59:16;;;;;;;14.30;4.47;;;;;;;23.39;74.03;101079.13;5068659;28;20060;-68
2022/08/24 06:01:45;;;;;;;;;;;;;;;23.18;73.22;101079.75;5068362;28;20052;-68
2022/08/24 06:04:13;;;;;;;11.85;4.45;;;;;;;23.10;75.55;101078.06;5068993;28;19931;-68
2022/08/24 06:06:41;;;;;;;11.13;4.78;;;;;;;23.22;75.51;101082.59;5056763;28;20162;-68
2022/08/24 06:09:10;;;;;;;11.02;4.53;;;;;;;23.34;75.03;101085.13;5057777;28;20056;-67
2022/08/24 06:11:39;;;;;;;8.85;4.10;;;;;;;23.49;74.81;101084.00;5068930;28;20045;-68
2022/08/24 06:14:13;;;;;;;9.45;3.97;;;;;;;23.58;73.78;101092.09;5055376;28;20052;-68
2022/08/24 06:16:51;;;;;;;11.27;4.70;;;;;;;23.63;73.77;101091.72;5067072;28;20051;-68
2022/08/24 06:19:20;;;;;;;8.98;4.18;;;;;;;23.78;74.28;101091.41;5049376;28;20409;-68
2022/08/24 06:21:50;;;;;;;9.57;4.28;;;;;;;23.80;73.22;101089.03;5048723;28;20045;-68
2022/08/24 06:24:17;;;;;;;;;;;;;;;23.89;73.16;101085.84;5041035;28;20064;-68
2022/08/24 06:29:32;;;;;;;10.90;4.10;;;;;;;23.97;73.55;101091.09;5054389;28;20408;-67
2022/08/24 06:32:16;;;;;;;10.25;4.13;;;;;;;23.99;72.81;101094.38;5056137;28;20045;-68
2022/08/24 06:34:44;;;;;;;13.05;4.82;;;;;;;23.98;72.29;101095.56;5056684;28;20064;-68
2022/08/24 06:37:12;;;;;;;17.48;5.20;;;;;;;24.09;72.82;101095.63;5069189;28;20544;-68
2022/08/24 06:39:40;;;;;;;19.70;5.90;;;;;;;24.19;71.80;101095.69;5049389;28;20053;-68
2022/08/24 06:42:09;;;;;;;18.08;5.25;;;;;;;24.41;71.84;101094.53;5034470;28;20052;-68
2022/08/24 06:44:42;;;;;;;28.52;11.15;;;;;;;24.48;69.68;101094.56;5068319;28;20053;-69
2022/08/24 06:47:18;;;;;;;32.55;15.45;;;;;;;24.39;68.01;101085.69;5037485;28;20064;-69
2022/08/24 06:49:48;;;;;;;18.17;7.75;;;;;;;24.33;66.82;101087.28;5071167;28;20056;-69
2022/08/24 06:52:15;;;;;;;13.75;9.55;;;;;;;24.43;67.39;101091.31;5053155;28;20623;-69
2022/08/24 06:54:42;;;;;;;10.63;4.95;;;;;;;24.00;65.92;101093.19;5058222;28;20052;-67
2022/08/24 06:57:10;;;;;;;12.95;4.93;;;;;;;23.76;66.65;101081.78;5067174;28;20053;-67
2022/08/24 06:59:39;;;;;;;11.75;6.55;;;;;;;24.24;67.06;101091.66;5052213;28;20416;-67
2022/08/24 07:02:08;;;;;;;11.82;5.45;;;;;;;24.39;65.25;101091.31;5055998;28;20056;-68
2022/08/24 07:04:37;;;;;;;17.75;10.48;;;;;;;24.21;65.14;101092.47;5036772;28;20578;-68
2022/08/24 07:07:23;;;;;;;21.08;7.20;;;;;;;24.46;65.06;101087.72;5052688;28;20519;-68
2022/08/24 07:09:50;;;;;;;11.32;4.90;;;;;;;24.64;64.50;101082.09;5070072;28;20064;-70
2022/08/24 07:12:18;;;;;;;16.05;6.35;;;;;;;24.59;64.15;101079.69;5052033;28;20354;-67
2022/08/24 07:14:45;;;;;;;13.80;5.97;;;;;;;24.90;62.81;101084.59;5068396;28;20053;-69
2022/08/24 07:17:13;;;;;;;14.30;6.00;;;;;;;24.93;62.32;101090.22;5053382;28;20049;-69
2022/08/24 07:19:41;;;;;;;10.45;4.78;;;;;;;24.98;62.47;101087.03;5057459;28;20581;-68
2022/08/24 07:22:09;;;;;;;10.98;4.50;;;;;;;24.65;62.77;101086.56;5048440;28;20045;-68
2022/08/24 07:24:36;;;;;;;12.50;4.72;;;;;;;24.40;63.71;101083.69;5071681;28;20052;-71
2022/08/24 07:27:05;;;;;;;23.27;8.57;;;;;;;24.72;63.41;101090.22;5053627;28;20140;-70
2022/08/24 07:29:32;;;;;;;41.78;10.15;;;;;;;25.00;62.34;101086.63;5040854;28;20063;-70
2022/08/24 07:32:19;;;;;;;35.67;10.55;;;;;;;25.25;61.29;101090.22;5039432;28;20072;-71
2022/08/24 07:34:49;;;;;;;28.37;8.77;;;;;;;25.32;60.45;101093.06;5037072;28;20048;-70
2022/08/24 07:37:16;;;;;;;9.05;4.63;;;;;;;25.34;59.97;101094.28;5053072;28;20311;-69
2022/08/24 07:39:47;;;;;;;18.88;6.13;;;;;;;25.51;59.60;101096.28;5070477;28;20045;-69
2022/08/24 07:42:16;;;;;;;24.52;7.72;;;;;;;25.48;59.27;101104.75;5052516;28;20413;-68
2022/08/24 07:44:58;;;;;;;7.88;3.70;;;;;;;25.41;59.32;101099.13;5066726;28;20052;-68
2022/08/24 07:47:26;;;;;;;7.13;2.90;;;;;;;25.48;57.81;101107.56;5051518;28;20041;-69
2022/08/24 07:50:16;;;;;;;12.05;3.70;;;;;;;25.67;57.99;101103.50;5070971;28;20053;-70
2022/08/24 07:52:44;;;;;;;9.05;2.35;;;;;;;25.66;57.27;101099.91;5060363;28;20040;-70
2022/08/24 07:55:12;;;;;;;10.95;3.88;;;;;;;25.66;57.19;101105.53;5066152;28;20044;-68
2022/08/24 07:57:41;;;;;;;8.55;2.97;;;;;;;25.84;56.54;101100.63;5054083;28;20640;-70
2022/08/24 08:00:11;;;;;;;16.27;2.83;;;;;;;25.89;56.45;101105.06;5055726;28;20216;-70
2022/08/24 08:02:46;;;;;;;10.45;2.63;;;;;;;26.01;55.95;101108.28;5071876;28;20052;-69
2022/08/24 08:05:18;;;;;;;8.55;2.83;;;;;;;26.18;55.37;101107.41;5072113;28;20056;-69
2022/08/24 08:07:49;;;;;;;5.93;2.95;;;;;;;26.21;55.13;101111.44;5068807;28;20059;-68
2022/08/24 08:10:18;;;;;;;8.30;2.50;;;;;;;26.22;55.51;101119.50;5051310;28;20132;-70
2022/08/24 08:12:46;;;;;;;11.50;3.10;;;;;;;26.29;54.99;101125.09;5054021;28;20061;-71
2022/08/24 08:15:13;;;;;;;14.20;5.45;;;;;;;26.42;55.05;101119.81;5051945;28;20060;-71
2022/08/24 08:18:01;;;;;;;6.85;2.92;;;;;;;26.47;54.63;101122.19;5058534;28;20514;-73
2022/08/24 08:20:30;;;;;;;6.85;2.88;;;;;;;26.59;53.94;101124.56;5036550;28;20669;-74
2022/08/24 08:26:00;;;;;;;9.40;3.45;;;;;;;26.75;53.76;101124.09;5068409;28;20507;-70
2022/08/24 08:28:42;;;;;;;6.70;2.60;;;;;;;26.78;53.12;101126.88;5054148;28;20059;-71
2022/08/24 08:31:09;;;;;;;11.52;2.33;;;;;;;26.48;53.31;101123.81;5053871;28;20052;-71
2022/08/24 08:33:39;;;;;;;14.82;2.35;;;;;;;26.72;53.43;101120.09;5055252;28;20056;-72
2022/08/24 08:36:13;;;;;;;14.18;2.65;;;;;;;26.76;52.68;101122.88;5075688;28;20408;-71
2022/08/24 08:38:49;;;;;;;8.70;2.28;;;;;;;26.91;52.65;101118.72;5056010;28;20539;-71
2022/08/24 08:41:41;;;;;;;7.38;1.92;;;;;;;27.15;51.16;101121.38;5054884;28;20052;-71
2022/08/24 08:44:34;;;;;;;12.52;2.05;;;;;;;27.28;51.48;101114.00;5051467;28;20048;-71
2022/08/24 08:47:20;;;;;;;10.73;2.30;;;;;;;27.36;51.29;101106.28;5063732;28;20045;-71
2022/08/24 08:50:38;;;;;;;11.85;1.90;;;;;;;27.32;51.20;101111.19;5052910;28;20521;-70
2022/08/24 08:53:49;;;;;;;5.82;1.52;;;;;;;27.43;48.69;101109.03;4986860;28;20060;-71
2022/08/24 08:56:27;;;;;;;31.25;3.25;;;;;;;27.37;49.15;101117.16;5066701;28;20049;-68
2022/08/24 08:59:20;;;;;;;32.93;3.97;;;;;;;27.34;48.83;101109.53;5053515;28;20053;-69
2022/08/24 09:02:23;;;;;;;22.20;2.13;;;;;;;27.54;49.96;101110.56;5066635;28;20045;-69
2022/08/24 09:05:21;;;;;;;24.30;3.05;;;;;;;27.65;48.90;101111.22;5040233;28;20061;-68
2022/08/24 09:07:55;;;;;;;19.40;3.05;;;;;;;27.55;49.39;101114.19;5071702;28;20053;-70
2022/08/24 09:11:00;;;;;;;18.15;3.03;;;;;;;27.75;48.07;101106.69;5066522;28;20436;-70
2022/08/24 09:14:08;;;;;;;53.90;6.20;;;;;;;27.63;47.09;101107.25;5053873;28;20051;-70
2022/08/24 09:16:47;;;;;;;18.35;3.28;;;;;;;27.67;47.16;101105.97;5039189;28;20534;-73
2022/08/24 09:19:27;;;;;;;9.40;2.28;;;;;;;27.67;46.88;101105.16;5055622;28;20585;-70
2022/08/24 09:22:05;;;;;;;8.45;1.92;;;;;;;27.89;46.66;101108.56;5063273;28;20052;-69
2022/08/24 09:24:51;;;;;;;18.13;3.35;;;;;;;27.77;46.04;101107.88;5066024;28;20068;-72
2022/08/24 09:28:00;;;;;;;11.02;3.85;;;;;;;27.67;45.93;101113.66;5073839;28;20041;-71
2022/08/24 09:30:40;;;;;;;10.80;2.40;;;;;;;27.73;45.42;101109.97;5043167;28;20049;-70
2022/08/24 09:33:19;;;;;;;13.60;1.77;;;;;;;27.65;45.20;101116.13;5051801;28;20568;-71
2022/08/24 09:36:07;;;;;;;9.98;1.83;;;;;;;27.81;45.61;101116.31;5053669;28;20053;-70
2022/08/24 09:38:57;;;;;;;12.02;1.80;;;;;;;27.70;45.27;101110.78;5044843;28;20045;-71
2022/08/24 09:41:42;;;;;;;8.93;1.67;;;;;;;27.72;45.68;101114.00;5075493;28;20055;-69
2022/08/24 09:44:20;;;;;;;7.28;1.63;;;;;;;27.51;45.35;101117.03;5058535;28;20045;-71
2022/08/24 09:46:57;;;;;;;7.32;1.10;;;;;;;27.61;45.50;101118.16;5055205;28;20067;-72
2022/08/24 09:49:47;;;;;;;6.13;1.10;;;;;;;27.54;45.45;101116.22;5069623;28;20484;-70
2022/08/24 09:52:33;;;;;;;3.47;0.80;;;;;;;27.51;44.73;101114.22;5049037;28;20045;-70
2022/08/24 09:55:28;;;;;;;6.57;1.00;;;;;;;27.70;44.57;101112.81;5050549;28;20059;-70
2022/08/24 09:57:59;;;;;;;6.25;0.70;;;;;;;27.55;45.03;101114.97;5054035;28;20049;-71
2022/08/24 10:01:07;;;;;;;10.65;1.40;;;;;;;27.64;45.67;101106.81;5051175;28;20045;-71
2022/08/24 10:03:59;;;;;;;4.53;1.25;;;;;;;27.90;44.89;101105.31;5047007;28;20427;-68
2022/08/24 10:06:56;;;;;;;12.57;1.63;;;;;;;27.80;44.59;101106.25;5049046;28;20056;-70
2022/08/24 10:09:39;;;;;;;8.75;1.60;;;;;;;27.80;44.83;101109.06;5040871;28;20155;-68
2022/08/24 10:12:16;;;;;;;4.00;0.93;;;;;;;28.01;44.59;101108.06;5046194;28;20056;-70
2022/08/24 10:14:52;;;;;;;4.35;0.90;;;;;;;28.21;44.08;101098.47;5057852;28;20049;-72
2022/08/24 10:17:48;;;;;;;90.40;5.05;;;;;;;28.22;48.06;101087.97;5036135;28;20052;-70
2022/08/24 10:20:22;;;;;;;6.90;1.33;;;;;;;28.25;44.45;101087.09;5054573;28;20131;-71
2022/08/24 10:23:26;;;;;;;7.13;1.40;;;;;;;28.43;43.55;101082.81;5050532;28;20049;-66
2022/08/24 10:26:53;;;;;;;11.07;1.70;;;;;;;28.37;43.11;101073.19;5050521;28;20048;-67
2022/08/24 10:29:23;;;;;;;9.57;1.23;;;;;;;28.24;43.70;101082.69;5025576;28;20069;-68
2022/08/24 10:32:24;;;;;;;5.28;1.20;;;;;;;28.32;43.06;101075.66;5049933;28;20071;-71
2022/08/24 10:35:04;;;;;;;7.05;1.52;;;;;;;28.26;42.62;101074.56;5058156;28;20056;-68
2022/08/24 10:39:39;;;;;;;6.15;1.48;;;;;;;28.22;43.71;101074.59;5050720;28;20064;-67
2022/08/24 10:41:12;;;;;;;6.35;1.10;;;;;;;28.32;43.28;101070.81;5050942;28;20049;-71
2022/08/24 10:43:59;;;;;;;5.40;1.00;;;;;;;28.48;42.42;101073.84;5048325;28;20056;-72
2022/08/24 10:46:48;;;;;;;3.85;1.00;;;;;;;28.34;42.30;101071.19;5045951;28;20052;-70
2022/08/24 10:49:31;;;;;;;12.60;6.50;;;;;;;28.45;42.11;101077.50;5043666;28;20060;-70
2022/08/24 10:52:36;;;;;;;11.68;2.90;;;;;;;28.44;41.95;101070.25;5050836;28;20053;-71
2022/08/24 10:55:18;;;;;;;7.20;1.92;;;;;;;28.58;42.10;101069.25;5070609;28;20041;-70
2022/08/24 10:58:13;;;;;;;9.43;1.60;;;;;;;28.59;41.95;101068.81;5050711;28;20044;-71
2022/08/24 11:00:41;;;;;;;8.60;1.63;;;;;;;28.65;41.85;101072.00;5053366;28;20060;-67
2022/08/24 11:03:17;;;;;;;8.35;1.50;;;;;;;28.88;41.22;101060.69;5059185;28;20056;-72
2022/08/24 11:05:48;;;;;;;5.47;1.20;;;;;;;28.77;41.09;101057.22;5053393;28;20059;-70
2022/08/24 11:08:27;;;;;;;5.20;1.02;;;;;;;29.05;40.81;101056.75;5051593;28;20057;-69
2022/08/24 11:11:09;;;;;;;19.23;5.63;;;;;;;29.05;40.85;101058.78;5056092;28;20062;-69
2022/08/24 11:14:02;;;;;;;8.13;2.28;;;;;;;28.93;41.02;101050.88;5063751;28;20353;-71
2022/08/24 11:16:39;;;;;;;3.90;1.95;;;;;;;29.05;40.75;101048.25;5060376;28;20381;-72
2022/08/24 11:19:10;;;;;;;4.60;1.20;;;;;;;28.84;40.47;101042.16;5073789;28;20041;-74
2022/08/24 11:21:48;;;;;;;7.95;2.10;;;;;;;28.88;40.43;101032.34;5056065;28;20056;-73
2022/08/24 11:24:22;;;;;;;5.03;1.48;;;;;;;29.00;40.54;101039.41;5057732;28;20060;-72
2022/08/24 11:26:54;;;;;;;4.30;1.15;;;;;;;29.17;40.36;101033.47;5045159;28;20479;-70
2022/08/24 11:29:30;;;;;;;3.55;1.30;;;;;;;29.15;40.72;101027.41;5041581;28;20056;-70
2022/08/24 11:31:58;;;;;;;5.32;1.40;;;;;;;29.47;40.18;101029.66;5054756;28;20056;-71
2022/08/24 11:34:33;;;;;;;7.72;2.05;;;;;;;29.51;40.05;101019.88;5056915;28;20050;-73
2022/08/24 11:37:04;;;;;;;9.75;1.92;;;;;;;29.36;40.32;101017.75;5043689;28;20059;-69
2022/08/24 11:39:36;;;;;;;7.63;1.40;;;;;;;29.49;39.94;101025.19;5052108;28;20408;-71
2022/08/24 11:42:32;;;;;;;5.85;1.30;;;;;;;29.39;39.75;101017.66;5050214;28;20048;-70
2022/08/24 11:45:09;;;;;;;4.90;1.10;;;;;;;29.37;39.32;101022.16;5053822;28;20056;-70
2022/08/24 11:47:55;;;;;;;8.63;1.50;;;;;;;29.44;39.25;101016.34;5063549;28;20049;-70
2022/08/24 11:50:32;;;;;;;3.75;1.00;;;;;;;29.50;38.88;101009.72;5047673;28;20069;-69
2022/08/24 11:53:04;;;;;;;7.82;0.88;;;;;;;29.41;39.06;101008.72;5048246;28;20093;-69
2022/08/24 11:55:46;;;;;;;12.83;1.60;;;;;;;29.36;38.89;101004.31;5047226;28;20045;-69
2022/08/24 11:58:33;;;;;;;3.63;1.10;;;;;;;29.45;38.91;101009.44;5049096;28;20052;-71
2022/08/24 12:01:06;;;;;;;4.50;1.60;;;;;;;29.54;38.70;100995.47;5047095;28;20049;-71
2022/08/24 12:03:52;;;;;;;5.57;1.20;;;;;;;29.48;38.48;100997.22;5066478;28;20048;-69
2022/08/24 12:06:25;;;;;;;5.97;1.50;;;;;;;29.34;39.13;100998.31;5055128;28;20049;-70